Latest Weather Observations for Central Arnhem Plateau

IDD60801

Issued at 2:35 pm CST Thursday 23 October 2014 (issued every 30 minutes, with the page automatically refreshed every 10 minutes)

About weather observations | Map of weather stations | Latest weather observations for NT | Other Formats
Station Details ID: 014909 Name: CENTRAL ARNHEM PLATEAU Lat: -13.33 Lon: 133.09 Height: 416.0 m
Data from the previous 72 hours. | See also: Recent months for locations in Northern Territory
Date/Time
CST
Temp
°C
App
Temp
°C
Dew
Point
Rel
Hum
%
Delta-T
°C
Wind Press
QNH
hPa
Press
MSL
hPa
Rain
since 9 am
mm
Dir
 
Spd
km/h
Gust
km/h
Spd
kts
Gust
kts
23/02:30pm 34.2 28.7 1.9 13 16.7 E 20 35 11 19 1012.3 1009.3 0.0
23/02:00pm 34.4 28.0 0.9 12 17.0 SSE 24 37 13 20 1012.6 1009.6 0.0
23/01:30pm 34.4 28.2 2.0 13 16.8 ESE 24 44 13 24 1013.1 1010.1 0.0
23/01:00pm 34.7 28.7 3.3 14 16.6 SE 24 39 13 21 1013.9 1010.8 0.0
23/12:30pm 32.9 26.3 1.9 14 15.9 E 26 37 14 20 1014.5 1011.5 0.0
23/12:00pm 32.7 29.1 2.7 15 15.5 ESE 11 26 6 14 1015.1 1012.1 0.0
23/11:30am 32.4 27.2 3.4 16 15.2 ESE 20 32 11 17 1015.6 1012.6 0.0
23/11:00am 31.6 26.4 2.7 16 14.9 E 19 33 10 18 1016.1 1013.1 0.0
23/10:30am 30.4 25.3 4.2 19 13.7 ENE 20 30 11 16 1016.7 1013.7 0.0
23/10:00am 29.8 24.5 5.1 21 13.1 E 22 30 12 16 1017.0 1014.0 0.0
23/09:30am 29.4 25.5 8.5 27 11.7 NE 19 22 10 12 1017.1 1014.1 0.0
23/09:00am 27.8 26.2 11.4 36 9.5 E 11 17 6 9 1017.2 1014.2 0.0
23/08:30am 26.5 25.4 11.8 40 8.6 ENE 9 15 5 8 1017.2 1014.2 0.0
23/08:00am 25.3 24.7 13.5 48 7.0 N 9 15 5 8 1017.0 1014.0 0.0
23/07:30am 24.5 24.7 14.3 53 6.1 NNE 6 9 3 5 1016.6 1013.5 0.0
23/07:00am 22.4 22.9 15.0 63 4.5 NNE 6 9 3 5 1016.1 1013.1 0.0
23/06:30am 19.5 20.7 13.9 70 3.3 CALM 0 0 0 0 1016.0 1013.0 0.0
23/06:00am 20.1 21.4 14.0 68 3.6 NNW 0 0 0 0 1015.7 1012.7 0.0
23/05:30am 20.1 20.4 14.5 70 3.3 ENE 6 11 3 6 1015.3 1012.3 0.0
23/05:00am 20.4 20.4 14.1 67 3.7 NW 7 9 4 5 1015.0 1012.0 0.0
23/04:30am 21.3 22.6 14.2 64 4.2 CALM 0 0 0 0 1014.9 1011.9 0.0
23/04:00am 21.5 22.3 14.9 66 4.0 NNW 4 6 2 3 1015.0 1012.0 0.0
23/03:30am 22.3 23.7 14.4 61 4.7 CALM 0 0 0 0 1015.1 1012.1 0.0
23/03:00am 23.2 24.4 15.0 60 5.0 NE 2 6 1 3 1015.1 1012.1 0.0
23/02:30am 23.7 24.3 15.2 59 5.2 NE 6 7 3 4 1015.2 1012.2 0.0
23/02:00am 24.1 24.6 15.1 57 5.5 NE 6 7 3 4 1015.5 1012.5 0.0
23/01:30am 24.8 25.3 15.1 54 5.9 NE 6 7 3 4 1015.8 1012.8 0.0
23/01:00am 24.6 25.0 13.8 51 6.5 NE 4 6 2 3 1016.0 1013.0 0.0
23/12:30am 26.0 26.3 14.5 49 7.0 ENE 6 9 3 5 1016.3 1013.3 0.0
23/12:00am 26.3 26.7 14.7 48 7.1 NE 6 11 3 6 1016.3 1013.3 0.0
 
Date/Time
CST
Temp
°C
App
Temp
°C
Dew
Point
Rel
Hum
%
Delta-T
°C
Wind Press
QNH
hPa
Press
MSL
hPa
Rain
since 9 am
mm
Dir
 
Spd
km/h
Gust
km/h
Spd
kts
Gust
kts
22/11:30pm 26.4 26.2 14.8 49 7.1 NNE 9 13 5 7 1016.2 1013.2 0.0
22/11:00pm 27.0 25.6 9.4 33 9.9 NNE 7 9 4 5 1016.6 1013.5 0.0
22/10:30pm 28.1 25.0 5.6 24 11.9 ENE 11 17 6 9 1016.5 1013.4 0.0
22/10:00pm 28.7 24.4 3.5 20 12.9 ENE 15 19 8 10 1015.9 1012.9 0.0
22/09:30pm 29.3 25.8 3.3 19 13.3 E 11 15 6 8 1015.6 1012.6 0.0
22/09:00pm 29.8 26.0 3.7 19 13.5 E 13 17 7 9 1015.2 1012.2 0.0
22/08:30pm 30.7 27.2 3.7 18 14.1 E 11 15 6 8 1014.6 1011.6 0.0
22/08:00pm 31.5 27.2 3.5 17 14.6 E 15 19 8 10 1014.2 1011.1 0.0
22/07:30pm 31.8 28.2 2.9 16 15.0 E 11 15 6 8 1013.7 1010.7 0.0
22/07:00pm 32.7 28.5 3.6 16 15.3 E 15 20 8 11 1013.2 1010.2 0.0
22/06:30pm 33.4 29.1 3.3 15 15.8 ESE 15 20 8 11 1012.9 1009.9 0.0
22/06:00pm 34.1 29.7 2.8 14 16.4 SE 15 20 8 11 1012.5 1009.5 0.0
22/05:30pm 34.4 29.3 3.1 14 16.5 ESE 19 28 10 15 1012.2 1009.1 0.0
22/05:00pm 35.2 30.2 3.7 14 16.8 SE 19 26 10 14 1012.0 1008.9 0.0
22/04:30pm 34.4 29.1 3.1 14 16.5 SE 20 35 11 19 1012.0 1008.9 0.0
22/04:00pm 34.8 29.8 4.4 15 16.4 E 20 37 11 20 1012.0 1008.9 0.0
22/03:30pm 34.6 28.2 3.2 14 16.6 ENE 26 35 14 19 1012.2 1009.1 0.0
22/03:00pm 35.2 31.4 5.6 16 16.3 ESE 15 22 8 12 1012.5 1009.5 0.0
22/02:30pm 34.8 30.3 4.4 15 16.4 ESE 17 35 9 19 1012.9 1009.9 0.0
22/02:00pm 34.4 30.0 5.0 16 16.0 S 17 24 9 13 1013.4 1010.4 0.0
22/01:30pm 33.7 28.3 4.4 16 15.7 E 22 33 12 18 1014.1 1011.0 0.0
22/01:00pm 33.9 27.5 5.4 17 15.5 E 28 35 15 19 1014.5 1011.5 0.0
22/12:30pm 33.2 28.2 6.5 19 14.7 SE 22 35 12 19 1015.3 1012.3 0.0
22/12:00pm 33.2 27.4 7.9 21 14.3 E 28 41 15 22 1015.9 1012.9 0.0
22/11:30am 31.5 27.2 7.9 23 13.2 E 20 37 11 20 1016.7 1013.7 0.0
22/11:00am 30.8 25.9 8.5 25 12.6 E 24 37 13 20 1017.1 1014.1 0.0
22/10:30am 30.7 28.0 11.6 31 11.3 ESE 17 26 9 14 1017.4 1014.4 0.0
22/10:00am 29.2 26.5 11.7 34 10.3 ESE 17 26 9 14 1017.8 1014.8 0.0
22/09:30am 27.0 26.4 15.7 50 7.0 ESE 13 20 7 11 1018.2 1015.2 0.0
22/09:00am 26.1 26.6 16.6 55 6.0 ESE 9 15 5 8 1018.4 1015.4 -
22/08:30am 24.9 26.1 17.4 63 4.7 SSE 7 13 4 7 1018.2 1015.2 -
22/08:00am 24.6 25.8 17.3 64 4.6 SE 7 13 4 7 1017.9 1014.9 -
22/07:30am 24.1 25.9 17.4 66 4.2 SSE 4 7 2 4 1017.5 1014.5 -
22/07:00am 22.1 23.9 15.5 66 4.0 CALM 0 4 0 2 1017.1 1014.1 -
22/06:30am 21.2 23.1 15.7 71 3.3 CALM 0 0 0 0 1016.5 1013.4 0.0
22/06:00am 20.9 22.5 15.0 69 3.5 CALM 0 0 0 0 1016.2 1013.2 0.0
22/05:30am 21.2 22.9 15.1 68 3.7 CALM 0 0 0 0 1015.9 1012.9 0.0
22/05:00am 22.4 23.5 17.1 72 3.3 WNW 7 9 4 5 1015.5 1012.5 0.0
22/04:30am 22.7 23.2 17.4 72 3.3 WNW 11 15 6 8 1015.2 1012.2 0.0
22/04:00am 22.9 23.8 17.6 72 3.3 WNW 9 13 5 7 1015.3 1012.3 0.0
22/03:30am 23.0 22.6 17.2 70 3.6 WNW 15 19 8 10 1015.1 1012.1 0.0
22/03:00am 23.4 23.7 16.9 67 4.1 W 11 17 6 9 1015.2 1012.2 0.0
22/02:30am 24.0 23.9 16.0 61 4.9 W 11 15 6 8 1015.5 1012.5 0.0
22/02:00am 24.6 24.6 14.1 52 6.3 NW 7 9 4 5 1015.7 1012.7 0.0
22/01:30am 24.4 24.0 13.0 49 6.7 N 7 9 4 5 1016.0 1013.0 0.0
22/01:00am 25.1 24.2 11.3 42 7.9 N 7 7 4 4 1016.2 1013.2 0.0
22/12:30am 25.7 24.3 9.5 36 9.0 N 7 11 4 6 1016.8 1013.8 0.0
22/12:00am 26.2 24.3 9.1 34 9.5 NNE 9 11 5 6 1017.1 1014.1 0.0
 
Date/Time
CST
Temp
°C
App
Temp
°C
Dew
Point
Rel
Hum
%
Delta-T
°C
Wind Press
QNH
hPa
Press
MSL
hPa
Rain
since 9 am
mm
Dir
 
Spd
km/h
Gust
km/h
Spd
kts
Gust
kts
21/11:30pm 27.3 24.2 7.2 28 10.9 NE 13 17 7 9 1017.3 1014.3 0.0
21/11:00pm 28.1 23.4 5.0 23 12.1 E 19 26 10 14 1017.1 1014.1 0.0
21/10:30pm 27.8 24.1 2.1 19 12.8 E 11 15 6 8 1016.9 1013.9 0.0
21/10:00pm 27.9 24.4 1.4 18 13.0 SE 9 11 5 6 1016.5 1013.4 0.0
21/09:30pm 26.0 23.0 0.6 19 12.1 ENE 6 6 3 3 1015.9 1012.9 0.0
21/09:00pm 27.0 24.0 0.7 18 12.7 ENE 6 6 3 3 1015.8 1012.8 0.0
21/08:30pm 29.4 25.7 0.1 15 14.2 E 9 11 5 6 1015.6 1012.6 0.0
21/08:00pm 30.2 26.9 -0.2 14 14.8 E 7 11 4 6 1015.2 1012.2 0.0
21/07:30pm 30.9 27.3 0.3 14 15.1 E 9 11 5 6 1014.9 1011.9 0.0
21/07:00pm 31.7 27.8 1.0 14 15.4 E 11 15 6 8 1014.6 1011.6 0.0
21/06:30pm 32.7 28.0 0.7 13 16.0 E 15 20 8 11 1014.2 1011.1 0.0
21/06:00pm 33.5 28.9 1.3 13 16.4 ESE 15 20 8 11 1013.9 1010.8 0.0
21/05:30pm 33.7 28.3 1.5 13 16.5 E 19 30 10 16 1013.5 1010.5 0.0
21/05:00pm 34.0 29.2 2.8 14 16.3 E 17 28 9 15 1013.2 1010.2 0.0
21/04:30pm 34.5 29.0 2.1 13 16.8 SE 20 30 11 16 1013.2 1010.2 0.0
21/04:00pm 34.9 29.7 3.5 14 16.7 SE 20 26 11 14 1013.1 1010.1 0.0
21/03:30pm 33.6 29.5 2.4 14 16.2 SE 13 20 7 11 1013.3 1010.3 0.0
21/03:00pm 33.7 29.1 3.5 15 16.0 SE 17 28 9 15 1013.4 1010.4 0.0
21/02:30pm 33.2 28.1 4.0 16 15.5 SSE 20 33 11 18 1013.9 1010.8 0.0
21/02:00pm 33.0 28.6 4.7 17 15.2 ENE 17 26 9 14 1014.3 1011.2 0.0
21/01:30pm 32.6 26.0 4.4 17 15.0 SE 28 43 15 23 1015.1 1012.1 0.0
21/01:28pm 33.6 27.0 4.3 16 15.7 SE 28 43 15 23 1015.1 1012.1 0.0
21/01:00pm 33.0 29.5 5.5 18 14.9 S 13 24 7 13 1015.6 1012.6 0.0
21/12:30pm 33.1 28.1 6.4 19 14.7 E 22 32 12 17 1016.3 1013.3 0.0
21/12:00pm 33.0 27.8 5.5 18 14.9 ESE 22 32 12 17 1017.1 1014.1 0.0
21/11:30am 31.1 25.9 5.5 20 13.8 ESE 22 32 12 17 1017.5 1014.5 0.0
21/11:00am 30.9 25.3 5.3 20 13.7 ESE 24 35 13 19 1017.7 1014.7 0.0
21/10:30am 30.4 26.3 6.3 22 13.1 ENE 17 22 9 12 1018.1 1015.1 0.0
21/10:00am 28.7 24.5 8.4 28 11.3 E 20 35 11 19 1018.4 1015.4 0.0
21/09:30am 28.7 26.9 10.8 33 10.4 E 11 17 6 9 1018.5 1015.5 0.0
21/09:00am 27.2 25.5 10.0 34 9.8 E 9 19 5 10 1018.5 1015.5 0.0
21/08:30am 26.5 26.0 12.2 41 8.4 SE 6 11 3 6 1018.5 1015.5 0.0
21/08:00am 25.3 25.1 12.9 46 7.3 SW 6 9 3 5 1018.3 1015.3 0.0
21/07:30am 24.3 24.7 14.7 55 5.8 NNW 6 11 3 6 1018.0 1015.0 0.0
21/07:00am 23.1 23.8 15.7 63 4.5 W 6 9 3 5 1017.5 1014.5 0.0
21/06:30am 21.2 21.7 15.1 68 3.7 W 6 7 3 4 1017.1 1014.1 0.0
21/06:00am 20.8 22.6 15.4 71 3.3 CALM 0 0 0 0 1016.8 1013.8 0.0
21/05:30am 21.9 22.5 15.3 66 4.0 ENE 6 9 3 5 1016.2 1013.2 0.0
21/05:00am 22.1 22.5 15.2 65 4.2 NE 7 9 4 5 1015.9 1012.9 0.0
21/04:30am 22.4 21.9 14.8 62 4.6 ENE 11 15 6 8 1015.5 1012.5 0.0
21/04:00am 22.8 22.0 14.1 58 5.2 ENE 11 15 6 8 1015.3 1012.3 0.0
21/03:30am 23.1 22.2 13.6 55 5.6 NE 11 13 6 7 1015.1 1012.1 0.0
21/03:00am 23.8 22.5 13.6 52 6.1 NE 13 20 7 11 1015.3 1012.3 0.0
21/02:30am 24.3 22.8 13.2 50 6.6 NE 13 15 7 8 1015.7 1012.7 0.0
21/02:00am 24.9 23.1 12.2 45 7.4 E 13 19 7 10 1015.9 1012.9 0.0
21/01:30am 25.5 22.7 11.3 41 8.2 E 17 24 9 13 1016.1 1013.1 0.0
21/01:00am 26.0 22.9 10.2 37 9.0 E 17 20 9 11 1016.6 1013.5 0.0
21/12:30am 26.4 23.1 9.7 35 9.4 E 17 22 9 12 1017.0 1014.0 0.0
21/12:00am 26.5 23.9 9.4 34 9.6 E 13 17 7 9 1017.0 1014.0 0.0
 
Date/Time
CST
Temp
°C
App
Temp
°C
Dew
Point
Rel
Hum
%
Delta-T
°C
Wind Press
QNH
hPa
Press
MSL
hPa
Rain
since 9 am
mm
Dir
 
Spd
km/h
Gust
km/h
Spd
kts
Gust
kts
20/11:30pm 27.2 24.2 9.1 32 10.1 ESE 15 19 8 10 1017.1 1014.1 0.0
20/11:00pm 28.0 24.3 9.3 31 10.5 E 19 26 10 14 1017.2 1014.2 0.0
20/10:30pm 28.2 24.6 8.5 29 11.0 E 17 22 9 12 1016.9 1013.9 0.0
20/10:00pm 28.4 25.9 8.1 28 11.2 E 11 15 6 8 1016.6 1013.5 0.0
20/09:30pm 28.9 25.7 6.9 25 12.0 E 13 17 7 9 1015.8 1012.8 0.0
20/09:00pm 29.5 26.9 6.2 23 12.6 ESE 9 13 5 7 1015.4 1012.4 0.0
20/08:30pm 29.8 27.1 5.8 22 12.9 ESE 9 9 5 5 1014.9 1011.9 0.0
20/08:00pm 30.3 28.0 5.6 21 13.2 E 7 9 4 5 1014.4 1011.3 0.0
20/07:30pm 30.8 28.4 5.3 20 13.6 ESE 7 11 4 6 1014.0 1010.9 0.0
20/07:00pm 31.5 27.9 5.1 19 14.1 E 13 20 7 11 1013.5 1010.5 0.0
20/06:30pm 32.2 28.6 4.9 18 14.6 ESE 13 19 7 10 1013.1 1010.1 0.0
20/06:00pm 32.9 27.4 3.8 16 15.4 E 22 28 12 15 1012.7 1009.7 0.0
20/05:30pm 33.4 28.3 3.3 15 15.8 ENE 19 33 10 18 1012.4 1009.4 0.0
20/05:00pm 33.8 28.6 3.6 15 16.0 E 20 26 11 14 1012.2 1009.1 0.0
20/04:30pm 34.6 29.3 3.2 14 16.6 E 20 28 11 15 1012.1 1009.0 0.0
20/04:00pm 33.9 28.7 3.6 15 16.0 E 20 30 11 16 1012.2 1009.1 0.0
20/03:30pm 34.3 28.2 3.0 14 16.5 E 24 33 13 18 1012.3 1009.3 0.0
20/03:00pm 34.8 28.8 3.4 14 16.7 ESE 24 30 13 16 1012.6 1009.6 0.0

Other Formats:

Comma delimited format used in spreadsheet applications
http://www.bom.gov.au/fwo/IDD60801/IDD60801.94141.axf

JavaScript Object Notation format (JSON) in row-major order
http://www.bom.gov.au/fwo/IDD60801/IDD60801.94141.json